sensor_id;sensor_type;location;lat;lon;timestamp;P1;durP1;ratioP1;P2;durP2;ratioP2
13374;SDS011;6756;51.354;15.754;2022-12-10T00:03:48;69.57;;;34.50;;
13374;SDS011;6756;51.354;15.754;2022-12-10T00:07:49;49.73;;;26.07;;
13374;SDS011;6756;51.354;15.754;2022-12-10T00:11:50;54.10;;;29.13;;
13374;SDS011;6756;51.354;15.754;2022-12-10T00:15:51;45.50;;;23.67;;
13374;SDS011;6756;51.354;15.754;2022-12-10T00:19:52;52.50;;;28.97;;
13374;SDS011;6756;51.354;15.754;2022-12-10T00:23:53;51.07;;;28.00;;
13374;SDS011;6756;51.354;15.754;2022-12-10T00:27:54;51.73;;;26.17;;
13374;SDS011;6756;51.354;15.754;2022-12-10T00:31:55;48.90;;;27.70;;
13374;SDS011;6756;51.354;15.754;2022-12-10T00:35:56;45.33;;;25.23;;
13374;SDS011;6756;51.354;15.754;2022-12-10T00:40:01;48.80;;;25.97;;
13374;SDS011;6756;51.354;15.754;2022-12-10T00:44:02;46.03;;;23.83;;
13374;SDS011;6756;51.354;15.754;2022-12-10T00:48:03;43.53;;;24.00;;
13374;SDS011;6756;51.354;15.754;2022-12-10T00:52:03;43.40;;;23.73;;
13374;SDS011;6756;51.354;15.754;2022-12-10T00:56:04;44.30;;;23.60;;
13374;SDS011;6756;51.354;15.754;2022-12-10T01:00:06;63.33;;;32.67;;
13374;SDS011;6756;51.354;15.754;2022-12-10T01:04:09;56.30;;;29.70;;
13374;SDS011;6756;51.354;15.754;2022-12-10T01:08:12;65.53;;;31.87;;
13374;SDS011;6756;51.354;15.754;2022-12-10T01:12:13;48.33;;;24.83;;
13374;SDS011;6756;51.354;15.754;2022-12-10T01:16:16;42.70;;;24.43;;
13374;SDS011;6756;51.354;15.754;2022-12-10T01:20:18;41.77;;;23.90;;
13374;SDS011;6756;51.354;15.754;2022-12-10T01:24:19;48.63;;;24.53;;
13374;SDS011;6756;51.354;15.754;2022-12-10T01:28:21;56.80;;;28.73;;
13374;SDS011;6756;51.354;15.754;2022-12-10T01:32:22;43.87;;;24.10;;
13374;SDS011;6756;51.354;15.754;2022-12-10T01:36:24;79.63;;;37.17;;
13374;SDS011;6756;51.354;15.754;2022-12-10T01:40:30;69.43;;;34.03;;
13374;SDS011;6756;51.354;15.754;2022-12-10T01:48:31;47.67;;;24.73;;
13374;SDS011;6756;51.354;15.754;2022-12-10T01:52:32;76.90;;;36.10;;
13374;SDS011;6756;51.354;15.754;2022-12-10T01:56:35;42.37;;;23.53;;
13374;SDS011;6756;51.354;15.754;2022-12-10T02:00:40;44.13;;;22.73;;
13374;SDS011;6756;51.354;15.754;2022-12-10T02:08:59;49.73;;;27.27;;
13374;SDS011;6756;51.354;15.754;2022-12-10T02:13:13;40.20;;;21.80;;
13374;SDS011;6756;51.354;15.754;2022-12-10T02:17:25;44.10;;;23.47;;
13374;SDS011;6756;51.354;15.754;2022-12-10T02:21:32;47.13;;;25.37;;
13374;SDS011;6756;51.354;15.754;2022-12-10T02:25:46;43.97;;;22.87;;
13374;SDS011;6756;51.354;15.754;2022-12-10T02:29:58;41.43;;;22.40;;
13374;SDS011;6756;51.354;15.754;2022-12-10T02:34:01;38.33;;;21.30;;
13374;SDS011;6756;51.354;15.754;2022-12-10T02:38:39;44.33;;;22.33;;
13374;SDS011;6756;51.354;15.754;2022-12-10T02:42:36;40.03;;;22.77;;
13374;SDS011;6756;51.354;15.754;2022-12-10T02:46:40;45.47;;;22.37;;
13374;SDS011;6756;51.354;15.754;2022-12-10T02:50:44;38.93;;;21.80;;
13374;SDS011;6756;51.354;15.754;2022-12-10T02:54:46;40.57;;;20.67;;
13374;SDS011;6756;51.354;15.754;2022-12-10T02:58:59;38.87;;;21.20;;
13374;SDS011;6756;51.354;15.754;2022-12-10T03:11:39;40.53;;;21.87;;
13374;SDS011;6756;51.354;15.754;2022-12-10T03:15:42;42.47;;;21.07;;
13374;SDS011;6756;51.354;15.754;2022-12-10T03:19:45;37.43;;;20.80;;
13374;SDS011;6756;51.354;15.754;2022-12-10T03:23:49;39.67;;;22.23;;
13374;SDS011;6756;51.354;15.754;2022-12-10T03:27:51;41.10;;;22.90;;
13374;SDS011;6756;51.354;15.754;2022-12-10T03:31:55;40.83;;;22.73;;
13374;SDS011;6756;51.354;15.754;2022-12-10T03:35:58;41.60;;;23.60;;
13374;SDS011;6756;51.354;15.754;2022-12-10T03:40:00;42.07;;;22.70;;
13374;SDS011;6756;51.354;15.754;2022-12-10T03:44:01;39.80;;;21.27;;
13374;SDS011;6756;51.354;15.754;2022-12-10T03:48:03;42.67;;;22.33;;
13374;SDS011;6756;51.354;15.754;2022-12-10T03:52:04;40.30;;;23.73;;
13374;SDS011;6756;51.354;15.754;2022-12-10T03:56:05;46.83;;;24.80;;
13374;SDS011;6756;51.354;15.754;2022-12-10T04:00:06;47.20;;;24.63;;
13374;SDS011;6756;51.354;15.754;2022-12-10T04:04:08;46.57;;;24.67;;
13374;SDS011;6756;51.354;15.754;2022-12-10T04:08:09;41.17;;;23.80;;
13374;SDS011;6756;51.354;15.754;2022-12-10T04:12:10;47.13;;;24.23;;
13374;SDS011;6756;51.354;15.754;2022-12-10T04:16:11;53.17;;;28.93;;
13374;SDS011;6756;51.354;15.754;2022-12-10T04:20:27;58.70;;;31.97;;
13374;SDS011;6756;51.354;15.754;2022-12-10T04:24:46;63.37;;;30.67;;
13374;SDS011;6756;51.354;15.754;2022-12-10T04:29:05;55.03;;;26.00;;
13374;SDS011;6756;51.354;15.754;2022-12-10T04:33:07;68.00;;;34.40;;
13374;SDS011;6756;51.354;15.754;2022-12-10T04:37:08;71.43;;;31.33;;
13374;SDS011;6756;51.354;15.754;2022-12-10T04:41:11;55.57;;;28.73;;
13374;SDS011;6756;51.354;15.754;2022-12-10T04:45:15;54.60;;;32.03;;
13374;SDS011;6756;51.354;15.754;2022-12-10T04:49:16;50.97;;;28.23;;
13374;SDS011;6756;51.354;15.754;2022-12-10T04:53:17;52.17;;;26.63;;
13374;SDS011;6756;51.354;15.754;2022-12-10T04:57:18;52.53;;;27.90;;
13374;SDS011;6756;51.354;15.754;2022-12-10T05:01:19;50.93;;;27.50;;
13374;SDS011;6756;51.354;15.754;2022-12-10T05:05:20;58.47;;;29.43;;
13374;SDS011;6756;51.354;15.754;2022-12-10T05:09:20;48.67;;;27.57;;
13374;SDS011;6756;51.354;15.754;2022-12-10T05:13:22;55.27;;;30.07;;
13374;SDS011;6756;51.354;15.754;2022-12-10T05:17:23;51.07;;;28.40;;
13374;SDS011;6756;51.354;15.754;2022-12-10T05:21:25;55.27;;;27.60;;
13374;SDS011;6756;51.354;15.754;2022-12-10T05:25:46;47.43;;;25.63;;
13374;SDS011;6756;51.354;15.754;2022-12-10T05:29:52;67.23;;;33.40;;
13374;SDS011;6756;51.354;15.754;2022-12-10T05:33:54;64.30;;;31.90;;
13374;SDS011;6756;51.354;15.754;2022-12-10T05:37:56;54.20;;;29.30;;
13374;SDS011;6756;51.354;15.754;2022-12-10T05:41:57;72.63;;;36.67;;
13374;SDS011;6756;51.354;15.754;2022-12-10T05:46:01;67.07;;;34.00;;
13374;SDS011;6756;51.354;15.754;2022-12-10T05:50:03;65.97;;;33.13;;
13374;SDS011;6756;51.354;15.754;2022-12-10T05:54:05;55.63;;;30.37;;
13374;SDS011;6756;51.354;15.754;2022-12-10T05:58:06;58.00;;;31.43;;
13374;SDS011;6756;51.354;15.754;2022-12-10T06:02:07;60.27;;;31.43;;
13374;SDS011;6756;51.354;15.754;2022-12-10T06:06:09;63.80;;;33.70;;
13374;SDS011;6756;51.354;15.754;2022-12-10T06:10:10;86.23;;;38.93;;
13374;SDS011;6756;51.354;15.754;2022-12-10T06:14:11;69.43;;;34.73;;
13374;SDS011;6756;51.354;15.754;2022-12-10T06:18:12;61.40;;;30.80;;
13374;SDS011;6756;51.354;15.754;2022-12-10T06:22:16;58.03;;;33.33;;
13374;SDS011;6756;51.354;15.754;2022-12-10T06:26:18;65.17;;;34.23;;
13374;SDS011;6756;51.354;15.754;2022-12-10T06:30:21;70.40;;;35.43;;
13374;SDS011;6756;51.354;15.754;2022-12-10T06:34:21;76.07;;;38.83;;
13374;SDS011;6756;51.354;15.754;2022-12-10T06:38:23;76.07;;;38.13;;
13374;SDS011;6756;51.354;15.754;2022-12-10T06:42:23;65.47;;;32.17;;
13374;SDS011;6756;51.354;15.754;2022-12-10T06:46:25;78.03;;;37.47;;
13374;SDS011;6756;51.354;15.754;2022-12-10T06:50:29;80.47;;;40.07;;
13374;SDS011;6756;51.354;15.754;2022-12-10T06:54:30;71.57;;;34.50;;
13374;SDS011;6756;51.354;15.754;2022-12-10T06:58:32;67.30;;;32.67;;
13374;SDS011;6756;51.354;15.754;2022-12-10T07:02:33;68.27;;;35.90;;
13374;SDS011;6756;51.354;15.754;2022-12-10T07:06:35;71.10;;;34.93;;
13374;SDS011;6756;51.354;15.754;2022-12-10T07:10:36;65.43;;;31.30;;
13374;SDS011;6756;51.354;15.754;2022-12-10T07:14:37;82.33;;;42.50;;
13374;SDS011;6756;51.354;15.754;2022-12-10T07:18:38;100.73;;;54.77;;
13374;SDS011;6756;51.354;15.754;2022-12-10T07:22:39;75.93;;;41.90;;
13374;SDS011;6756;51.354;15.754;2022-12-10T07:26:41;76.90;;;39.07;;
13374;SDS011;6756;51.354;15.754;2022-12-10T07:30:43;82.97;;;41.27;;
13374;SDS011;6756;51.354;15.754;2022-12-10T07:34:44;77.30;;;36.97;;
13374;SDS011;6756;51.354;15.754;2022-12-10T07:38:45;101.90;;;43.63;;
13374;SDS011;6756;51.354;15.754;2022-12-10T07:42:46;88.80;;;40.90;;
13374;SDS011;6756;51.354;15.754;2022-12-10T07:46:48;66.23;;;32.33;;
13374;SDS011;6756;51.354;15.754;2022-12-10T07:50:55;60.27;;;31.00;;
13374;SDS011;6756;51.354;15.754;2022-12-10T07:54:57;59.20;;;31.93;;
13374;SDS011;6756;51.354;15.754;2022-12-10T07:58:57;62.63;;;33.63;;
13374;SDS011;6756;51.354;15.754;2022-12-10T08:02:58;61.47;;;33.80;;
13374;SDS011;6756;51.354;15.754;2022-12-10T08:06:59;99.27;;;48.70;;
13374;SDS011;6756;51.354;15.754;2022-12-10T08:11:00;103.53;;;50.40;;
13374;SDS011;6756;51.354;15.754;2022-12-10T08:15:05;64.67;;;31.73;;
13374;SDS011;6756;51.354;15.754;2022-12-10T08:19:06;67.60;;;33.93;;
13374;SDS011;6756;51.354;15.754;2022-12-10T08:23:07;60.60;;;33.33;;
13374;SDS011;6756;51.354;15.754;2022-12-10T08:27:07;75.13;;;42.50;;
13374;SDS011;6756;51.354;15.754;2022-12-10T08:31:09;70.10;;;37.17;;
13374;SDS011;6756;51.354;15.754;2022-12-10T08:35:11;106.57;;;53.53;;
13374;SDS011;6756;51.354;15.754;2022-12-10T08:39:13;65.17;;;33.03;;
13374;SDS011;6756;51.354;15.754;2022-12-10T08:43:16;59.70;;;29.03;;
13374;SDS011;6756;51.354;15.754;2022-12-10T08:47:17;55.87;;;29.10;;
13374;SDS011;6756;51.354;15.754;2022-12-10T08:51:18;53.63;;;28.33;;
13374;SDS011;6756;51.354;15.754;2022-12-10T08:55:20;61.03;;;29.77;;
13374;SDS011;6756;51.354;15.754;2022-12-10T08:59:21;72.37;;;36.70;;
13374;SDS011;6756;51.354;15.754;2022-12-10T09:03:21;84.27;;;40.93;;
13374;SDS011;6756;51.354;15.754;2022-12-10T09:07:23;61.03;;;32.83;;
13374;SDS011;6756;51.354;15.754;2022-12-10T09:11:25;94.10;;;49.53;;
13374;SDS011;6756;51.354;15.754;2022-12-10T09:15:28;118.33;;;64.53;;
13374;SDS011;6756;51.354;15.754;2022-12-10T09:19:29;73.70;;;39.57;;
13374;SDS011;6756;51.354;15.754;2022-12-10T09:23:30;62.23;;;31.77;;
13374;SDS011;6756;51.354;15.754;2022-12-10T09:27:31;55.97;;;31.60;;
13374;SDS011;6756;51.354;15.754;2022-12-10T09:31:32;47.40;;;28.43;;
13374;SDS011;6756;51.354;15.754;2022-12-10T09:35:33;49.27;;;28.10;;
13374;SDS011;6756;51.354;15.754;2022-12-10T09:39:34;51.20;;;31.13;;
13374;SDS011;6756;51.354;15.754;2022-12-10T09:52:23;47.47;;;25.93;;
13374;SDS011;6756;51.354;15.754;2022-12-10T09:56:30;41.37;;;23.63;;
13374;SDS011;6756;51.354;15.754;2022-12-10T10:00:37;65.50;;;32.93;;
13374;SDS011;6756;51.354;15.754;2022-12-10T10:04:39;59.37;;;31.90;;
13374;SDS011;6756;51.354;15.754;2022-12-10T10:08:51;42.43;;;23.93;;
13374;SDS011;6756;51.354;15.754;2022-12-10T10:12:55;49.03;;;29.20;;
13374;SDS011;6756;51.354;15.754;2022-12-10T10:21:27;37.17;;;21.07;;
13374;SDS011;6756;51.354;15.754;2022-12-10T10:25:32;44.43;;;25.77;;
13374;SDS011;6756;51.354;15.754;2022-12-10T10:29:33;52.37;;;28.03;;
13374;SDS011;6756;51.354;15.754;2022-12-10T10:33:34;43.37;;;23.00;;
13374;SDS011;6756;51.354;15.754;2022-12-10T10:37:57;53.17;;;28.67;;
13374;SDS011;6756;51.354;15.754;2022-12-10T10:42:00;42.47;;;23.27;;
13374;SDS011;6756;51.354;15.754;2022-12-10T10:46:22;37.07;;;22.33;;
13374;SDS011;6756;51.354;15.754;2022-12-10T10:50:24;36.80;;;22.80;;
13374;SDS011;6756;51.354;15.754;2022-12-10T10:54:32;55.73;;;29.70;;
13374;SDS011;6756;51.354;15.754;2022-12-10T10:58:47;78.97;;;40.17;;
13374;SDS011;6756;51.354;15.754;2022-12-10T11:03:08;62.47;;;34.80;;
13374;SDS011;6756;51.354;15.754;2022-12-10T11:11:34;45.33;;;25.60;;
13374;SDS011;6756;51.354;15.754;2022-12-10T11:15:38;49.47;;;29.17;;
13374;SDS011;6756;51.354;15.754;2022-12-10T11:24:04;49.53;;;28.17;;
13374;SDS011;6756;51.354;15.754;2022-12-10T11:28:16;58.17;;;32.77;;
13374;SDS011;6756;51.354;15.754;2022-12-10T11:45:44;52.83;;;29.53;;
13374;SDS011;6756;51.354;15.754;2022-12-10T12:11:19;69.93;;;35.97;;
13374;SDS011;6756;51.354;15.754;2022-12-10T12:15:36;84.07;;;42.77;;
13374;SDS011;6756;51.354;15.754;2022-12-10T12:20:02;113.63;;;50.73;;
13374;SDS011;6756;51.354;15.754;2022-12-10T12:24:22;62.97;;;32.17;;
13374;SDS011;6756;51.354;15.754;2022-12-10T12:28:36;68.70;;;35.47;;
13374;SDS011;6756;51.354;15.754;2022-12-10T12:37:12;105.93;;;46.00;;
13374;SDS011;6756;51.354;15.754;2022-12-10T12:41:25;76.70;;;35.97;;
13374;SDS011;6756;51.354;15.754;2022-12-10T12:45:41;59.47;;;30.10;;
13374;SDS011;6756;51.354;15.754;2022-12-10T12:49:44;54.57;;;27.93;;
13374;SDS011;6756;51.354;15.754;2022-12-10T12:53:48;59.77;;;33.37;;
13374;SDS011;6756;51.354;15.754;2022-12-10T13:11:17;49.40;;;27.37;;
13374;SDS011;6756;51.354;15.754;2022-12-10T13:15:35;74.90;;;38.73;;
13374;SDS011;6756;51.354;15.754;2022-12-10T13:19:39;54.13;;;30.43;;
13374;SDS011;6756;51.354;15.754;2022-12-10T13:23:54;60.70;;;30.80;;
13374;SDS011;6756;51.354;15.754;2022-12-10T13:37:03;64.90;;;30.57;;
13374;SDS011;6756;51.354;15.754;2022-12-10T13:41:05;60.80;;;30.23;;
13374;SDS011;6756;51.354;15.754;2022-12-10T13:45:27;61.27;;;31.77;;
13374;SDS011;6756;51.354;15.754;2022-12-10T13:49:30;68.57;;;35.40;;
13374;SDS011;6756;51.354;15.754;2022-12-10T14:07:02;52.00;;;26.40;;
13374;SDS011;6756;51.354;15.754;2022-12-10T14:11:04;71.20;;;34.07;;
13374;SDS011;6756;51.354;15.754;2022-12-10T14:15:20;69.67;;;34.70;;
13374;SDS011;6756;51.354;15.754;2022-12-10T14:19:23;72.57;;;34.73;;
13374;SDS011;6756;51.354;15.754;2022-12-10T14:23:31;80.07;;;38.50;;
13374;SDS011;6756;51.354;15.754;2022-12-10T14:27:33;70.30;;;32.97;;
13374;SDS011;6756;51.354;15.754;2022-12-10T14:31:37;68.90;;;34.43;;
13374;SDS011;6756;51.354;15.754;2022-12-10T14:35:46;57.57;;;28.47;;
13374;SDS011;6756;51.354;15.754;2022-12-10T14:39:51;60.97;;;28.83;;
13374;SDS011;6756;51.354;15.754;2022-12-10T14:43:53;53.00;;;27.30;;
13374;SDS011;6756;51.354;15.754;2022-12-10T14:47:55;57.47;;;34.40;;
13374;SDS011;6756;51.354;15.754;2022-12-10T14:51:56;53.43;;;29.90;;
13374;SDS011;6756;51.354;15.754;2022-12-10T14:56:04;61.63;;;32.37;;
13374;SDS011;6756;51.354;15.754;2022-12-10T15:00:07;48.77;;;26.97;;
13374;SDS011;6756;51.354;15.754;2022-12-10T15:04:18;61.97;;;31.33;;
13374;SDS011;6756;51.354;15.754;2022-12-10T15:08:19;64.60;;;33.43;;
13374;SDS011;6756;51.354;15.754;2022-12-10T15:16:46;56.73;;;29.17;;
13374;SDS011;6756;51.354;15.754;2022-12-10T15:24:51;49.50;;;27.13;;
13374;SDS011;6756;51.354;15.754;2022-12-10T15:29:14;45.77;;;25.67;;
13374;SDS011;6756;51.354;15.754;2022-12-10T15:37:36;43.93;;;24.90;;
13374;SDS011;6756;51.354;15.754;2022-12-10T15:41:47;59.37;;;29.43;;
13374;SDS011;6756;51.354;15.754;2022-12-10T15:45:52;50.77;;;26.97;;
13374;SDS011;6756;51.354;15.754;2022-12-10T15:49:54;51.70;;;25.27;;
13374;SDS011;6756;51.354;15.754;2022-12-10T15:53:55;59.93;;;29.40;;
13374;SDS011;6756;51.354;15.754;2022-12-10T15:57:56;50.90;;;26.03;;
13374;SDS011;6756;51.354;15.754;2022-12-10T16:01:57;52.80;;;29.47;;
13374;SDS011;6756;51.354;15.754;2022-12-10T16:05:59;51.07;;;30.13;;
13374;SDS011;6756;51.354;15.754;2022-12-10T16:10:01;56.67;;;31.43;;
13374;SDS011;6756;51.354;15.754;2022-12-10T16:14:02;61.53;;;32.03;;
13374;SDS011;6756;51.354;15.754;2022-12-10T16:18:04;57.93;;;30.17;;
13374;SDS011;6756;51.354;15.754;2022-12-10T16:22:05;53.63;;;28.37;;
13374;SDS011;6756;51.354;15.754;2022-12-10T16:26:13;73.47;;;37.13;;
13374;SDS011;6756;51.354;15.754;2022-12-10T16:30:25;55.10;;;26.60;;
13374;SDS011;6756;51.354;15.754;2022-12-10T16:34:35;48.83;;;26.53;;
13374;SDS011;6756;51.354;15.754;2022-12-10T16:38:37;61.57;;;30.37;;
13374;SDS011;6756;51.354;15.754;2022-12-10T16:42:41;48.73;;;29.73;;
13374;SDS011;6756;51.354;15.754;2022-12-10T16:46:43;55.60;;;25.63;;
13374;SDS011;6756;51.354;15.754;2022-12-10T16:50:44;47.50;;;24.23;;
13374;SDS011;6756;51.354;15.754;2022-12-10T16:54:49;52.27;;;25.23;;
13374;SDS011;6756;51.354;15.754;2022-12-10T16:58:50;60.13;;;29.03;;
13374;SDS011;6756;51.354;15.754;2022-12-10T17:02:51;55.47;;;29.13;;
13374;SDS011;6756;51.354;15.754;2022-12-10T17:06:52;62.30;;;31.77;;
13374;SDS011;6756;51.354;15.754;2022-12-10T17:10:53;57.37;;;27.73;;
13374;SDS011;6756;51.354;15.754;2022-12-10T17:15:14;47.43;;;24.80;;
13374;SDS011;6756;51.354;15.754;2022-12-10T17:19:16;71.27;;;35.73;;
13374;SDS011;6756;51.354;15.754;2022-12-10T17:23:17;55.07;;;28.83;;
13374;SDS011;6756;51.354;15.754;2022-12-10T17:27:19;94.03;;;44.63;;
13374;SDS011;6756;51.354;15.754;2022-12-10T17:31:20;77.43;;;40.40;;
13374;SDS011;6756;51.354;15.754;2022-12-10T17:35:21;86.87;;;44.20;;
13374;SDS011;6756;51.354;15.754;2022-12-10T17:39:22;79.53;;;40.33;;
13374;SDS011;6756;51.354;15.754;2022-12-10T17:43:28;80.13;;;33.17;;
13374;SDS011;6756;51.354;15.754;2022-12-10T17:47:29;73.33;;;34.37;;
13374;SDS011;6756;51.354;15.754;2022-12-10T17:51:32;72.83;;;33.90;;
13374;SDS011;6756;51.354;15.754;2022-12-10T17:55:33;100.13;;;43.80;;
13374;SDS011;6756;51.354;15.754;2022-12-10T17:59:35;67.30;;;33.53;;
13374;SDS011;6756;51.354;15.754;2022-12-10T18:03:36;69.90;;;32.77;;
13374;SDS011;6756;51.354;15.754;2022-12-10T18:07:38;67.10;;;31.90;;
13374;SDS011;6756;51.354;15.754;2022-12-10T18:11:39;74.63;;;34.50;;
13374;SDS011;6756;51.354;15.754;2022-12-10T18:15:43;63.17;;;30.33;;
13374;SDS011;6756;51.354;15.754;2022-12-10T18:19:44;62.50;;;30.83;;
13374;SDS011;6756;51.354;15.754;2022-12-10T18:23:45;81.20;;;40.20;;
13374;SDS011;6756;51.354;15.754;2022-12-10T18:27:46;74.57;;;39.43;;
13374;SDS011;6756;51.354;15.754;2022-12-10T18:31:48;76.80;;;39.13;;
13374;SDS011;6756;51.354;15.754;2022-12-10T18:35:49;94.87;;;43.73;;
13374;SDS011;6756;51.354;15.754;2022-12-10T18:39:49;105.80;;;49.20;;
13374;SDS011;6756;51.354;15.754;2022-12-10T18:43:51;98.97;;;45.37;;
13374;SDS011;6756;51.354;15.754;2022-12-10T18:47:52;87.70;;;45.07;;
13374;SDS011;6756;51.354;15.754;2022-12-10T18:51:53;107.03;;;55.80;;
13374;SDS011;6756;51.354;15.754;2022-12-10T18:55:54;70.53;;;39.67;;
13374;SDS011;6756;51.354;15.754;2022-12-10T18:59:55;90.10;;;45.13;;
13374;SDS011;6756;51.354;15.754;2022-12-10T19:03:57;74.53;;;39.77;;
13374;SDS011;6756;51.354;15.754;2022-12-10T19:07:58;89.03;;;43.47;;
13374;SDS011;6756;51.354;15.754;2022-12-10T19:12:02;78.73;;;40.93;;
13374;SDS011;6756;51.354;15.754;2022-12-10T19:16:03;79.57;;;40.87;;
13374;SDS011;6756;51.354;15.754;2022-12-10T19:20:14;101.03;;;47.93;;
13374;SDS011;6756;51.354;15.754;2022-12-10T19:24:25;116.93;;;53.43;;
13374;SDS011;6756;51.354;15.754;2022-12-10T19:28:27;126.70;;;55.57;;
13374;SDS011;6756;51.354;15.754;2022-12-10T19:32:29;94.17;;;47.10;;
13374;SDS011;6756;51.354;15.754;2022-12-10T19:36:30;85.70;;;45.17;;
13374;SDS011;6756;51.354;15.754;2022-12-10T19:40:34;85.00;;;41.10;;
13374;SDS011;6756;51.354;15.754;2022-12-10T19:44:37;109.87;;;48.40;;
13374;SDS011;6756;51.354;15.754;2022-12-10T19:48:38;65.20;;;31.80;;
13374;SDS011;6756;51.354;15.754;2022-12-10T19:52:40;60.93;;;34.67;;
13374;SDS011;6756;51.354;15.754;2022-12-10T19:56:42;61.17;;;35.03;;
13374;SDS011;6756;51.354;15.754;2022-12-10T20:00:43;63.20;;;33.80;;
13374;SDS011;6756;51.354;15.754;2022-12-10T20:04:47;61.73;;;32.17;;
13374;SDS011;6756;51.354;15.754;2022-12-10T20:08:48;61.33;;;33.07;;
13374;SDS011;6756;51.354;15.754;2022-12-10T20:12:50;65.87;;;33.80;;
13374;SDS011;6756;51.354;15.754;2022-12-10T20:16:51;63.23;;;31.67;;
13374;SDS011;6756;51.354;15.754;2022-12-10T20:20:52;65.60;;;32.73;;
13374;SDS011;6756;51.354;15.754;2022-12-10T20:24:54;67.90;;;36.00;;
13374;SDS011;6756;51.354;15.754;2022-12-10T20:28:57;63.87;;;31.97;;
13374;SDS011;6756;51.354;15.754;2022-12-10T20:33:02;62.40;;;32.63;;
13374;SDS011;6756;51.354;15.754;2022-12-10T20:37:04;69.67;;;34.37;;
13374;SDS011;6756;51.354;15.754;2022-12-10T20:41:05;65.67;;;35.43;;
13374;SDS011;6756;51.354;15.754;2022-12-10T20:45:06;63.77;;;35.13;;
13374;SDS011;6756;51.354;15.754;2022-12-10T20:49:12;74.73;;;37.07;;
13374;SDS011;6756;51.354;15.754;2022-12-10T20:53:15;65.33;;;34.37;;
13374;SDS011;6756;51.354;15.754;2022-12-10T20:57:17;74.47;;;38.03;;
13374;SDS011;6756;51.354;15.754;2022-12-10T21:01:18;66.50;;;35.80;;
13374;SDS011;6756;51.354;15.754;2022-12-10T21:05:20;77.17;;;38.70;;
13374;SDS011;6756;51.354;15.754;2022-12-10T21:09:24;66.43;;;33.83;;
13374;SDS011;6756;51.354;15.754;2022-12-10T21:13:26;76.07;;;39.70;;
13374;SDS011;6756;51.354;15.754;2022-12-10T21:17:28;67.07;;;33.63;;
13374;SDS011;6756;51.354;15.754;2022-12-10T21:21:29;74.17;;;37.00;;
13374;SDS011;6756;51.354;15.754;2022-12-10T21:25:32;63.33;;;33.90;;
13374;SDS011;6756;51.354;15.754;2022-12-10T21:29:35;63.73;;;33.27;;
13374;SDS011;6756;51.354;15.754;2022-12-10T21:33:36;58.00;;;29.93;;
13374;SDS011;6756;51.354;15.754;2022-12-10T21:37:37;82.07;;;37.47;;
13374;SDS011;6756;51.354;15.754;2022-12-10T21:41:38;80.53;;;41.50;;
13374;SDS011;6756;51.354;15.754;2022-12-10T21:46:05;67.10;;;34.17;;
13374;SDS011;6756;51.354;15.754;2022-12-10T21:50:09;76.63;;;35.03;;
13374;SDS011;6756;51.354;15.754;2022-12-10T21:54:10;66.10;;;32.90;;
13374;SDS011;6756;51.354;15.754;2022-12-10T21:58:11;56.00;;;27.97;;
13374;SDS011;6756;51.354;15.754;2022-12-10T22:02:12;71.03;;;36.50;;
13374;SDS011;6756;51.354;15.754;2022-12-10T22:06:33;67.27;;;37.40;;
13374;SDS011;6756;51.354;15.754;2022-12-10T22:11:11;108.73;;;52.13;;
13374;SDS011;6756;51.354;15.754;2022-12-10T22:15:50;69.93;;;34.87;;
13374;SDS011;6756;51.354;15.754;2022-12-10T22:20:28;120.27;;;49.97;;
13374;SDS011;6756;51.354;15.754;2022-12-10T22:29:43;96.20;;;42.83;;
13374;SDS011;6756;51.354;15.754;2022-12-10T22:39:21;71.93;;;35.50;;
13374;SDS011;6756;51.354;15.754;2022-12-10T22:43:41;67.37;;;33.60;;
13374;SDS011;6756;51.354;15.754;2022-12-10T22:47:42;63.80;;;33.93;;
13374;SDS011;6756;51.354;15.754;2022-12-10T22:51:58;61.73;;;33.23;;
13374;SDS011;6756;51.354;15.754;2022-12-10T22:56:21;67.73;;;34.07;;
13374;SDS011;6756;51.354;15.754;2022-12-10T23:01:03;53.30;;;27.17;;
13374;SDS011;6756;51.354;15.754;2022-12-10T23:05:07;50.33;;;29.70;;
13374;SDS011;6756;51.354;15.754;2022-12-10T23:09:23;47.50;;;24.67;;
13374;SDS011;6756;51.354;15.754;2022-12-10T23:13:25;53.50;;;26.17;;
13374;SDS011;6756;51.354;15.754;2022-12-10T23:17:29;59.10;;;28.27;;
13374;SDS011;6756;51.354;15.754;2022-12-10T23:21:30;42.53;;;21.70;;
13374;SDS011;6756;51.354;15.754;2022-12-10T23:25:34;54.37;;;25.23;;
13374;SDS011;6756;51.354;15.754;2022-12-10T23:29:35;71.93;;;31.07;;
13374;SDS011;6756;51.354;15.754;2022-12-10T23:33:37;53.30;;;27.27;;
13374;SDS011;6756;51.354;15.754;2022-12-10T23:37:47;75.77;;;34.80;;
13374;SDS011;6756;51.354;15.754;2022-12-10T23:47:06;40.50;;;21.03;;
13374;SDS011;6756;51.354;15.754;2022-12-10T23:51:10;34.50;;;20.00;;
13374;SDS011;6756;51.354;15.754;2022-12-10T23:55:14;39.20;;;22.50;;
13374;SDS011;6756;51.354;15.754;2022-12-10T23:59:16;36.17;;;21.20;;
